Time;durP1;ratioP1;P1;durP2;ratioP2;P2;SDS_P1;SDS_P2;PMS_P1;PMS_P2;Temp;Humidity;BMP_temperature;BMP_pressure;BME280_temperature;BME280_humidity;BME280_pressure;Samples;Min_cycle;Max_cycle;Signal;HPM_P1;HPM_P2
2023/10/03 00:00:49;;;;;;;44.27;16.03;;;;;;;-145.18;100.00;46650.63;4994623;28;20030;-63
2023/10/03 00:03:15;;;;;;;42.73;15.10;;;;;;;-145.18;100.00;46644.78;4993528;28;20038;-64
2023/10/03 00:05:42;;;;;;;44.00;15.77;;;;;;;-145.18;100.00;46646.72;4994636;28;20121;-64
2023/10/03 00:08:08;;;;;;;41.03;15.03;;;;;;;-145.18;100.00;46650.63;4994834;28;20121;-64
2023/10/03 00:10:38;;;;;;;41.87;15.33;;;;;;;-145.18;100.00;46644.78;4994442;28;20034;-64
2023/10/03 00:13:07;;;;;;;45.03;15.70;;;;;;;-145.18;100.00;46640.88;4994447;28;20026;-63
2023/10/03 00:15:33;;;;;;;44.10;15.53;;;;;;;-145.18;100.00;46646.72;4993290;28;20494;-64
2023/10/03 00:17:58;;;;;;;44.13;15.87;;;;;;;-145.18;100.00;46646.72;4988905;28;20045;-64
2023/10/03 00:20:24;;;;;;;44.30;17.00;;;;;;;-145.18;100.00;46650.63;4992374;28;20078;-64
2023/10/03 00:22:50;;;;;;;46.77;16.27;;;;;;;-145.18;100.00;46650.63;4994514;28;20114;-64
2023/10/03 00:25:21;;;;;;;52.80;16.93;;;;;;;-145.18;100.00;46644.78;4994144;28;20517;-64
2023/10/03 00:27:49;;;;;;;50.13;16.67;;;;;;;-145.18;100.00;46646.72;4994635;28;20045;-64
2023/10/03 00:30:19;;;;;;;50.90;16.23;;;;;;;-145.18;100.00;46646.72;4992025;28;20038;-64
2023/10/03 00:32:45;;;;;;;52.20;16.70;;;;;;;-145.18;100.00;46648.69;4994579;28;20057;-64
2023/10/03 00:35:11;;;;;;;48.23;15.57;;;;;;;-145.18;100.00;46644.78;4993109;28;20026;-64
2023/10/03 00:37:37;;;;;;;45.20;17.20;;;;;;;-145.18;100.00;46644.78;4992869;28;20049;-64
2023/10/03 00:43:02;;;;;;;46.70;15.87;;;;;;;-145.18;100.00;46644.78;4977167;28;20053;-59
2023/10/03 00:45:29;;;;;;;40.83;15.23;;;;;;;-145.18;100.00;46640.88;4994121;28;20041;-59
2023/10/03 00:47:58;;;;;;;50.57;18.10;;;;;;;-145.18;100.00;46642.81;4993134;28;20109;-59
2023/10/03 00:50:25;;;;;;;50.17;16.30;;;;;;;-145.18;100.00;46638.91;4993981;28;20598;-59
2023/10/03 00:52:57;;;;;;;47.30;17.27;;;;;;;-145.18;100.00;46642.81;4992688;28;20586;-59
2023/10/03 00:55:26;;;;;;;44.73;16.70;;;;;;;-145.18;100.00;46638.91;4987311;28;20030;-59
2023/10/03 01:00:38;;;;;;;43.70;16.03;;;;;;;-145.18;100.00;46646.72;4989045;28;20037;-59
2023/10/03 01:03:09;;;;;;;42.00;15.70;;;;;;;-145.18;100.00;46646.72;4991248;28;20053;-59
2023/10/03 01:05:36;;;;;;;49.93;16.40;;;;;;;-145.18;100.00;46638.91;4993987;28;20034;-59
2023/10/03 01:08:03;;;;;;;45.73;16.33;;;;;;;-145.18;100.00;46646.72;4994024;28;20033;-59
2023/10/03 01:10:29;;;;;;;51.23;16.30;;;;;;;-145.18;100.00;46644.78;4992637;28;20512;-59
2023/10/03 01:12:54;;;;;;;45.13;15.87;;;;;;;-145.18;100.00;46644.78;4993467;28;20061;-60
2023/10/03 01:15:23;;;;;;;49.50;16.90;;;;;;;-145.18;100.00;46650.63;4986009;28;20093;-59
2023/10/03 01:17:57;;;;;;;44.87;15.97;;;;;;;-145.18;100.00;46646.72;4991356;28;20054;-59
2023/10/03 01:20:29;;;;;;;48.17;16.43;;;;;;;-145.18;100.00;46644.78;4994005;28;20096;-59
2023/10/03 01:22:55;;;;;;;43.27;15.80;;;;;;;-145.18;100.00;46642.81;4990530;28;20030;-59
2023/10/03 01:25:22;;;;;;;42.97;15.80;;;;;;;-145.18;100.00;46644.78;4993026;28;20078;-59
2023/10/03 01:27:47;;;;;;;41.83;15.03;;;;;;;-145.18;100.00;46650.63;4991877;28;20030;-59
2023/10/03 01:30:13;;;;;;;46.90;16.40;;;;;;;-145.18;100.00;46640.88;4991410;28;20034;-59
2023/10/03 01:32:47;;;;;;;41.93;15.77;;;;;;;-145.18;100.00;46644.78;4993442;28;20045;-59
2023/10/03 01:35:13;;;;;;;44.57;15.53;;;;;;;-145.18;100.00;46642.81;4993181;28;20522;-59
2023/10/03 01:37:39;;;;;;;41.37;16.17;;;;;;;-145.18;100.00;46642.81;4992382;28;20121;-59
2023/10/03 01:40:13;;;;;;;46.93;15.40;;;;;;;-145.18;100.00;46642.81;4993112;28;20061;-59
2023/10/03 01:42:46;;;;;;;45.63;16.17;;;;;;;-145.18;100.00;46644.78;4992593;28;20104;-59
2023/10/03 01:45:17;;;;;;;38.23;14.23;;;;;;;-145.18;100.00;46646.72;4992523;28;20380;-59
2023/10/03 01:47:49;;;;;;;44.27;15.00;;;;;;;-145.18;100.00;46644.78;4985332;28;20039;-59
2023/10/03 01:50:17;;;;;;;42.57;15.17;;;;;;;-145.18;100.00;46642.81;4993313;28;20061;-59
2023/10/03 01:52:43;;;;;;;46.87;16.30;;;;;;;-145.18;100.00;46644.78;4993160;28;20030;-59
2023/10/03 01:55:20;;;;;;;42.10;15.40;;;;;;;-145.18;100.00;46646.72;4992793;28;20041;-59
2023/10/03 01:57:47;;;;;;;39.87;15.13;;;;;;;-145.18;100.00;46642.81;4992994;28;20117;-58
2023/10/03 02:00:22;;;;;;;41.90;15.37;;;;;;;-145.18;100.00;46644.78;4989216;28;20497;-59
2023/10/03 02:02:48;;;;;;;43.17;15.10;;;;;;;-145.18;100.00;46640.88;4990556;28;20041;-59
2023/10/03 02:05:14;;;;;;;37.73;14.43;;;;;;;-145.18;100.00;46646.72;4970500;28;20042;-61
2023/10/03 02:07:43;;;;;;;42.43;14.40;;;;;;;-145.18;100.00;46642.81;4992984;28;20034;-61
2023/10/03 02:10:12;;;;;;;41.27;15.07;;;;;;;-145.18;100.00;46644.78;4992918;28;20038;-61
2023/10/03 02:12:48;;;;;;;41.10;15.83;;;;;;;-145.18;100.00;46642.81;4992389;28;20475;-59
2023/10/03 02:15:14;;;;;;;36.73;13.50;;;;;;;-145.18;100.00;46644.78;4989539;28;20066;-59
2023/10/03 02:17:40;;;;;;;42.77;13.93;;;;;;;-145.18;100.00;46648.69;4992368;28;20120;-59
2023/10/03 02:20:14;;;;;;;41.07;14.27;;;;;;;-145.18;100.00;46644.78;4990519;28;20042;-60
2023/10/03 02:22:40;;;;;;;35.37;13.07;;;;;;;-145.18;100.00;46646.72;4988685;28;20046;-60
2023/10/03 02:25:07;;;;;;;38.43;13.97;;;;;;;-145.18;100.00;46646.72;4991888;28;20082;-60
2023/10/03 02:27:33;;;;;;;33.13;13.67;;;;;;;-145.18;100.00;46648.69;4992594;28;20030;-60
2023/10/03 02:29:58;;;;;;;36.93;12.33;;;;;;;-145.18;100.00;46648.69;4992567;28;20030;-60
2023/10/03 02:32:25;;;;;;;34.73;12.43;;;;;;;-145.18;100.00;46652.59;4992207;28;20030;-60
2023/10/03 02:34:51;;;;;;;38.13;13.57;;;;;;;-145.18;100.00;46652.59;4992122;28;20027;-60
2023/10/03 02:37:16;;;;;;;33.53;12.17;;;;;;;-145.18;100.00;46646.72;4974622;28;20086;-60
2023/10/03 02:39:43;;;;;;;34.57;10.63;;;;;;;-145.18;100.00;46652.59;4992447;28;20109;-60
2023/10/03 02:42:09;;;;;;;33.17;11.97;;;;;;;-145.18;100.00;46658.44;4990360;28;20034;-60
2023/10/03 02:44:36;;;;;;;33.60;12.20;;;;;;;-145.18;100.00;46654.53;4991944;28;20060;-60
2023/10/03 02:47:02;;;;;;;32.47;11.57;;;;;;;-145.18;100.00;46662.34;4991680;28;20406;-60
2023/10/03 02:49:27;;;;;;;28.77;11.17;;;;;;;-145.18;100.00;46658.44;4992325;28;20037;-60
2023/10/03 02:51:53;;;;;;;30.87;11.47;;;;;;;-145.18;100.00;46656.50;4990398;28;20030;-61
2023/10/03 02:54:18;;;;;;;27.43;10.00;;;;;;;-145.18;100.00;46664.31;4992012;28;20146;-61
2023/10/03 02:56:44;;;;;;;33.00;12.13;;;;;;;-145.18;100.00;46660.41;4991952;28;20116;-61
2023/10/03 02:59:09;;;;;;;28.43;11.57;;;;;;;-145.18;100.00;46662.34;4992284;28;20030;-60
2023/10/03 03:01:35;;;;;;;27.27;10.23;;;;;;;-145.18;100.00;46654.53;4991848;28;20048;-65
2023/10/03 03:04:02;;;;;;;27.87;11.37;;;;;;;-145.18;100.00;46658.44;4991008;28;20510;-65
2023/10/03 03:06:28;;;;;;;29.30;9.90;;;;;;;-145.18;100.00;46656.50;4990951;28;20077;-66
2023/10/03 03:08:53;;;;;;;25.97;9.10;;;;;;;-145.18;100.00;46654.53;4988348;28;20506;-65
2023/10/03 03:11:19;;;;;;;23.73;9.03;;;;;;;-145.18;100.00;46652.59;4991991;28;20065;-65
2023/10/03 03:13:44;;;;;;;23.87;8.93;;;;;;;-145.18;100.00;46658.44;4990703;28;20398;-65
2023/10/03 03:16:12;;;;;;;20.97;8.93;;;;;;;-145.18;100.00;46654.53;4990715;28;20113;-65
2023/10/03 03:18:41;;;;;;;21.27;8.40;;;;;;;-145.18;100.00;46664.31;4990420;28;20450;-65
2023/10/03 03:21:14;;;;;;;21.23;8.03;;;;;;;-145.18;100.00;46656.50;4991372;28;20034;-65
2023/10/03 03:23:49;;;;;;;18.30;7.80;;;;;;;-145.18;100.00;46654.53;4991623;28;20049;-65
2023/10/03 03:26:21;;;;;;;23.63;7.90;;;;;;;-145.18;100.00;46656.50;4991202;28;20395;-65
2023/10/03 03:28:51;;;;;;;17.33;6.90;;;;;;;-145.18;100.00;46650.63;4991334;28;20031;-66
2023/10/03 03:33:51;;;;;;;26.13;6.93;;;;;;;-145.18;100.00;46662.34;4994563;28;20552;-66
2023/10/03 03:36:21;;;;;;;18.83;6.23;;;;;;;-145.18;100.00;46658.44;4989886;28;20080;-65
2023/10/03 03:38:49;;;;;;;14.67;6.37;;;;;;;-145.18;100.00;46656.50;4984336;28;20479;-66
2023/10/03 03:41:15;;;;;;;11.83;5.27;;;;;;;-145.18;100.00;46656.50;4991182;28;20030;-65
2023/10/03 03:43:42;;;;;;;8.73;4.60;;;;;;;-145.18;100.00;46656.50;4985023;28;20402;-65
2023/10/03 03:46:08;;;;;;;10.27;4.93;;;;;;;-145.18;100.00;46654.53;4987891;28;20030;-65
2023/10/03 03:48:34;;;;;;;17.00;5.07;;;;;;;-145.18;100.00;46656.50;4990960;28;20032;-65
2023/10/03 03:51:11;;;;;;;11.67;4.30;;;;;;;-145.18;100.00;46660.41;4991104;28;20030;-65
2023/10/03 03:53:38;;;;;;;14.10;4.13;;;;;;;-145.18;100.00;46646.72;4992615;28;20026;-65
2023/10/03 03:56:07;;;;;;;19.67;4.50;;;;;;;-145.18;100.00;46652.59;4993046;28;20478;-66
2023/10/03 03:58:37;;;;;;;15.73;4.17;;;;;;;-145.18;100.00;46650.63;4994866;28;20030;-65
2023/10/03 04:01:07;;;;;;;12.30;4.80;;;;;;;-145.18;100.00;46644.78;4986667;28;20034;-65
2023/10/03 04:03:34;;;;;;;13.17;4.83;;;;;;;-145.18;100.00;46644.78;4981889;28;20086;-65
2023/10/03 04:06:01;;;;;;;17.27;4.37;;;;;;;-145.18;100.00;46642.81;4992569;28;20441;-65
2023/10/03 04:08:26;;;;;;;22.80;5.57;;;;;;;-145.18;100.00;46644.78;4994592;28;20393;-65
2023/10/03 04:10:54;;;;;;;12.37;4.17;;;;;;;-145.18;100.00;46677.97;4992349;28;20042;-65
2023/10/03 04:13:20;;;;;;;16.10;5.60;;;;;;;-145.18;100.00;46642.81;4994280;28;20477;-65
2023/10/03 04:15:46;;;;;;;17.67;4.90;;;;;;;-145.18;100.00;46640.88;4993043;28;20137;-65
2023/10/03 04:18:12;;;;;;;14.90;5.07;;;;;;;-145.18;100.00;46640.88;4994754;28;20062;-65
2023/10/03 04:20:39;;;;;;;15.97;4.90;;;;;;;-145.18;100.00;46642.81;4994492;28;20042;-65
2023/10/03 04:23:06;;;;;;;12.47;4.63;;;;;;;-145.18;100.00;46676.03;4986704;28;20046;-65
2023/10/03 04:25:33;;;;;;;10.30;4.87;;;;;;;-145.18;100.00;46642.81;4993292;28;20070;-65
2023/10/03 04:28:00;;;;;;;13.77;5.27;;;;;;;-145.18;100.00;46644.78;4993102;28;20462;-65
2023/10/03 04:30:27;;;;;;;10.57;4.60;;;;;;;-145.18;100.00;46646.72;4994387;28;20038;-65
2023/10/03 04:32:54;;;;;;;14.50;4.30;;;;;;;-145.18;100.00;46642.81;4993864;28;20030;-64
2023/10/03 04:35:20;;;;;;;8.67;4.10;;;;;;;-145.18;100.00;46642.81;4998221;28;20680;-65
2023/10/03 04:37:57;;;;;;;9.33;3.80;;;;;;;-145.18;100.00;46646.72;4996428;28;20026;-65
2023/10/03 04:40:28;;;;;;;8.70;4.13;;;;;;;-145.18;100.00;46648.69;4991526;28;20482;-64
2023/10/03 04:42:57;;;;;;;10.10;3.60;;;;;;;-145.18;100.00;46642.81;5001847;28;20021;-65
2023/10/03 04:45:25;;;;;;;13.40;3.97;;;;;;;-145.18;100.00;46650.63;4992675;28;20554;-65
2023/10/03 04:47:51;;;;;;;7.70;3.73;;;;;;;-145.18;100.00;46652.59;4992693;28;20026;-64
2023/10/03 04:50:18;;;;;;;8.93;3.90;;;;;;;-145.18;100.00;46646.72;4993752;28;20034;-65
2023/10/03 04:52:48;;;;;;;8.57;3.70;;;;;;;-145.18;100.00;46646.72;4994141;28;20054;-65
2023/10/03 04:55:17;;;;;;;7.50;3.87;;;;;;;-145.18;100.00;46646.72;4993815;28;20031;-65
2023/10/03 04:57:48;;;;;;;13.23;4.40;;;;;;;-145.18;100.00;46644.78;4993523;28;20041;-65
2023/10/03 05:00:17;;;;;;;13.60;4.23;;;;;;;-145.18;100.00;46646.72;4984895;28;20045;-65
2023/10/03 05:02:46;;;;;;;11.20;3.60;;;;;;;-145.18;100.00;46646.72;4993476;28;20030;-65
2023/10/03 05:05:18;;;;;;;9.33;3.90;;;;;;;-145.18;100.00;46642.81;4988486;28;20034;-64
2023/10/03 05:07:43;;;;;;;9.17;3.87;;;;;;;-145.18;100.00;46646.72;4993633;28;20041;-65
2023/10/03 05:10:09;;;;;;;9.73;5.30;;;;;;;-145.18;100.00;46648.69;4993375;28;20022;-64
2023/10/03 05:12:34;;;;;;;11.53;4.30;;;;;;;-145.18;100.00;46646.72;4991924;28;20529;-65
2023/10/03 05:15:00;;;;;;;9.83;4.73;;;;;;;-145.18;100.00;46646.72;4992593;28;20022;-65
2023/10/03 05:17:26;;;;;;;12.33;4.57;;;;;;;-145.18;100.00;46644.78;4993553;28;20046;-65
2023/10/03 05:19:53;;;;;;;14.83;4.77;;;;;;;-145.18;100.00;46642.81;4993443;28;20061;-65
2023/10/03 05:22:20;;;;;;;15.10;5.40;;;;;;;-145.18;100.00;46646.72;4992417;28;20038;-60
2023/10/03 05:24:49;;;;;;;12.43;5.10;;;;;;;-145.18;100.00;46642.81;4985720;28;20053;-60
2023/10/03 05:27:15;;;;;;;11.03;5.23;;;;;;;-145.18;100.00;46648.69;4992387;28;20034;-60
2023/10/03 05:29:40;;;;;;;12.23;5.57;;;;;;;-145.18;100.00;46646.72;4992493;28;20419;-60
2023/10/03 05:32:06;;;;;;;13.87;4.63;;;;;;;-145.18;100.00;46646.72;4993176;28;20038;-60
2023/10/03 05:34:32;;;;;;;13.80;5.00;;;;;;;-145.18;100.00;46640.88;4991870;28;20054;-60
2023/10/03 05:36:57;;;;;;;14.13;5.27;;;;;;;-145.18;100.00;46642.81;4993055;28;20041;-60
2023/10/03 05:39:25;;;;;;;14.07;5.07;;;;;;;-145.18;100.00;46640.88;4992331;28;20042;-60
2023/10/03 05:41:56;;;;;;;14.60;4.97;;;;;;;-145.18;100.00;46646.72;4991786;28;20109;-60
2023/10/03 05:44:22;;;;;;;11.37;4.57;;;;;;;-145.18;100.00;46642.81;4992702;28;20533;-60
2023/10/03 05:46:52;;;;;;;14.83;5.67;;;;;;;-145.18;100.00;46642.81;4992906;28;20062;-59
2023/10/03 05:49:18;;;;;;;22.83;5.23;;;;;;;-145.18;100.00;46642.81;4992765;28;20034;-60
2023/10/03 05:51:43;;;;;;;11.30;5.17;;;;;;;-145.18;100.00;46644.78;4993008;28;20061;-60
2023/10/03 05:54:09;;;;;;;13.07;5.90;;;;;;;-145.18;100.00;46642.81;4992830;28;20027;-60
2023/10/03 05:56:34;;;;;;;13.80;5.13;;;;;;;-145.18;100.00;46640.88;4993110;28;20064;-60
2023/10/03 05:59:01;;;;;;;17.37;4.90;;;;;;;-145.18;100.00;46640.88;4992786;28;20038;-60
2023/10/03 06:01:27;;;;;;;14.17;5.23;;;;;;;-145.18;100.00;46636.94;4993241;28;20060;-60
2023/10/03 06:03:53;;;;;;;11.57;5.30;;;;;;;-145.18;100.00;46640.88;4981911;28;20514;-60
2023/10/03 06:06:21;;;;;;;11.53;5.37;;;;;;;-145.18;100.00;46642.81;4992911;28;20054;-60
2023/10/03 06:08:49;;;;;;;12.83;5.37;;;;;;;-145.18;100.00;46646.72;4992654;28;20441;-60
2023/10/03 06:11:17;;;;;;;9.10;4.77;;;;;;;-145.18;100.00;46640.88;4992650;28;20041;-60
2023/10/03 06:13:44;;;;;;;12.27;5.47;;;;;;;-145.18;100.00;46640.88;4992900;28;20085;-60
2023/10/03 06:16:14;;;;;;;11.90;4.63;;;;;;;-145.18;100.00;46644.78;4992530;28;20112;-61
2023/10/03 06:18:40;;;;;;;12.67;5.50;;;;;;;-145.18;100.00;46650.63;4992602;28;20030;-60
2023/10/03 06:21:10;;;;;;;14.30;5.43;;;;;;;-145.18;100.00;46642.81;4992835;28;20034;-60
2023/10/03 06:23:37;;;;;;;11.73;5.20;;;;;;;-145.18;100.00;46644.78;4990709;28;20034;-60
2023/10/03 06:26:03;;;;;;;15.70;5.20;;;;;;;-145.18;100.00;46644.78;4992529;28;20109;-60
2023/10/03 06:28:29;;;;;;;16.17;5.50;;;;;;;-145.18;100.00;46646.72;4992375;28;20516;-60
2023/10/03 06:30:55;;;;;;;16.43;5.40;;;;;;;-145.18;100.00;46644.78;4992181;28;20031;-60
2023/10/03 06:33:21;;;;;;;15.47;5.33;;;;;;;-145.18;100.00;46644.78;4991976;28;20034;-60
2023/10/03 06:35:50;;;;;;;12.73;4.90;;;;;;;-145.18;100.00;46640.88;4992405;28;20022;-60
2023/10/03 06:38:16;;;;;;;15.53;6.27;;;;;;;-145.18;100.00;46644.78;4992080;28;20026;-60
2023/10/03 06:40:42;;;;;;;13.60;5.60;;;;;;;-145.18;100.00;46644.78;4992157;28;20505;-60
2023/10/03 06:43:07;;;;;;;15.73;5.70;;;;;;;-145.18;100.00;46636.94;4992339;28;20057;-61
2023/10/03 06:45:33;;;;;;;12.90;5.40;;;;;;;-145.18;100.00;46676.03;4992421;28;20045;-60
2023/10/03 06:48:03;;;;;;;7.40;3.70;;;;;;;-145.18;100.00;46660.41;4990704;28;20405;-60
2023/10/03 06:50:32;;;;;;;8.97;3.33;;;;;;;-145.18;100.00;46660.41;4992040;28;20040;-60
2023/10/03 06:52:57;;;;;;;10.03;3.53;;;;;;;-145.18;100.00;46660.41;4991782;28;20122;-60
2023/10/03 06:55:23;;;;;;;9.07;2.90;;;;;;;-145.18;100.00;46660.41;4991842;28;20097;-60
2023/10/03 06:57:48;;;;;;;10.87;3.10;;;;;;;-145.18;100.00;46660.41;4991988;28;20030;-60
2023/10/03 07:00:15;;;;;;;8.53;2.80;;;;;;;-145.18;100.00;46660.41;4992506;28;20037;-60
2023/10/03 07:02:41;;;;;;;6.43;2.40;;;;;;;-145.18;100.00;46660.41;4991027;28;20023;-60
2023/10/03 07:05:07;;;;;;;7.97;2.70;;;;;;;-145.18;100.00;46660.41;4990553;28;20097;-61
2023/10/03 07:07:34;;;;;;;8.57;2.10;;;;;;;-145.18;100.00;46635.00;4992011;28;20027;-61
2023/10/03 07:09:59;;;;;;;11.67;1.97;;;;;;;-145.18;100.00;46660.41;4992045;28;20030;-60
2023/10/03 07:12:25;;;;;;;7.10;2.30;;;;;;;-145.18;100.00;46660.41;4992302;28;20030;-60
2023/10/03 07:14:51;;;;;;;5.67;1.73;;;;;;;-145.18;100.00;46633.06;4991851;28;20475;-60
2023/10/03 07:17:16;;;;;;;7.83;2.20;;;;;;;-145.18;100.00;46635.00;4991636;28;20057;-61
2023/10/03 07:19:45;;;;;;;5.90;1.50;;;;;;;-145.18;100.00;46660.41;4990388;28;20133;-60
2023/10/03 07:22:11;;;;;;;10.93;2.03;;;;;;;-145.18;100.00;46635.00;4991569;28;20502;-60
2023/10/03 07:24:39;;;;;;;3.67;1.43;;;;;;;-145.18;100.00;46660.41;4991642;28;20026;-61
2023/10/03 07:27:07;;;;;;;10.00;2.00;;;;;;;-145.18;100.00;46635.00;4991597;28;20038;-61
2023/10/03 07:29:32;;;;;;;8.73;1.53;;;;;;;-145.18;100.00;46636.94;4994668;28;20437;-60
2023/10/03 07:31:57;;;;;;;7.17;1.70;;;;;;;-145.18;100.00;46633.06;4994387;28;20026;-60
2023/10/03 07:34:23;;;;;;;7.00;2.30;;;;;;;-145.18;100.00;46633.06;4994289;28;20050;-60
2023/10/03 07:36:48;;;;;;;8.07;1.53;;;;;;;-145.18;100.00;46635.00;4995256;28;20026;-60
2023/10/03 07:39:15;;;;;;;6.87;1.73;;;;;;;-145.18;100.00;46633.06;4994323;28;20030;-61
2023/10/03 07:41:40;;;;;;;7.97;1.43;;;;;;;-145.18;100.00;46660.41;4995168;28;20169;-65
2023/10/03 07:44:08;;;;;;;8.03;1.47;;;;;;;-145.18;100.00;46633.06;4994084;28;20109;-65
2023/10/03 07:46:34;;;;;;;10.07;2.50;;;;;;;-145.18;100.00;46635.00;4995340;28;20064;-65
2023/10/03 07:49:01;;;;;;;6.67;1.87;;;;;;;-145.18;100.00;46635.00;4995096;28;20039;-66
2023/10/03 07:51:27;;;;;;;9.10;2.27;;;;;;;-145.18;100.00;46631.09;4994211;28;20034;-65
2023/10/03 07:53:55;;;;;;;4.83;1.47;;;;;;;-145.18;100.00;46629.13;4995444;28;20117;-64
2023/10/03 07:56:25;;;;;;;7.37;1.30;;;;;;;-145.18;100.00;46633.06;4987634;28;20035;-65
2023/10/03 07:58:54;;;;;;;7.80;1.47;;;;;;;-145.18;100.00;46660.41;4994278;28;20027;-65
2023/10/03 08:01:26;;;;;;;7.53;1.50;;;;;;;-145.18;100.00;46660.41;4995277;28;20026;-65
2023/10/03 08:03:58;;;;;;;3.07;0.73;;;;;;;-145.18;100.00;46660.41;4994452;28;20022;-67
2023/10/03 08:06:33;;;;;;;2.50;0.53;;;;;;;-145.18;100.00;46660.41;4994339;28;20557;-66
2023/10/03 08:08:59;;;;;;;1.30;0.57;;;;;;;-145.18;100.00;46660.41;4995207;28;20422;-65
2023/10/03 08:11:29;;;;;;;4.60;1.27;;;;;;;-145.18;100.00;46658.44;4994689;28;20085;-64
2023/10/03 08:14:13;;;;;;;3.23;1.13;;;;;;;-145.18;100.00;46660.41;4994539;28;20046;-64
2023/10/03 08:16:46;;;;;;;1.60;0.57;;;;;;;-145.18;100.00;46660.41;4984122;28;20046;-65
2023/10/03 08:19:25;;;;;;;4.60;0.90;;;;;;;-145.18;100.00;46656.50;4994953;28;20053;-64
2023/10/03 08:21:55;;;;;;;1.73;0.50;;;;;;;-145.18;100.00;46640.88;4995019;28;20169;-65
2023/10/03 08:24:25;;;;;;;2.13;0.70;;;;;;;-145.18;100.00;46640.88;4994246;28;20512;-64
2023/10/03 08:26:58;;;;;;;5.40;1.00;;;;;;;-145.18;100.00;46652.59;4994555;28;20042;-64
2023/10/03 08:29:24;;;;;;;3.90;1.00;;;;;;;-145.18;100.00;46609.59;4994563;28;20034;-64
2023/10/03 08:31:57;;;;;;;3.37;1.10;;;;;;;-145.18;100.00;46640.88;4994766;28;20026;-65
2023/10/03 08:34:27;;;;;;;6.83;1.10;;;;;;;-145.18;100.00;46597.88;4994069;28;20018;-64
2023/10/03 08:36:58;;;;;;;5.23;1.33;;;;;;;-145.18;100.00;46603.75;4994916;28;20434;-64
2023/10/03 08:39:29;;;;;;;3.67;1.30;;;;;;;-145.18;100.00;46597.88;4982614;28;20041;-64
2023/10/03 08:41:57;;;;;;;5.40;1.30;;;;;;;-145.18;100.00;46597.88;4993214;28;20038;-64
2023/10/03 08:44:24;;;;;;;6.80;1.23;;;;;;;-145.18;100.00;46599.84;4994372;28;20042;-65
2023/10/03 08:46:55;;;;;;;5.60;1.20;;;;;;;-145.18;100.00;46603.75;4994451;28;20026;-64
2023/10/03 08:49:38;;;;;;;7.83;1.00;;;;;;;-145.18;100.00;46599.84;4987050;28;20374;-65
2023/10/03 08:52:05;;;;;;;4.30;0.90;;;;;;;-145.18;100.00;46601.78;4994543;28;20441;-64
2023/10/03 08:54:36;;;;;;;3.87;1.27;;;;;;;-145.18;100.00;46603.75;4994094;28;20030;-64
2023/10/03 08:57:02;;;;;;;3.37;0.50;;;;;;;-145.18;100.00;46605.69;4994447;28;20046;-64
2023/10/03 08:59:30;;;;;;;2.97;0.70;;;;;;;-145.18;100.00;46609.59;4993672;28;20114;-64
2023/10/03 09:02:00;;;;;;;2.13;0.60;;;;;;;-145.18;100.00;46611.56;4994323;28;20073;-65
2023/10/03 09:04:37;;;;;;;4.47;1.30;;;;;;;-145.18;100.00;46615.47;4984845;28;20077;-64
2023/10/03 09:07:08;;;;;;;3.40;0.60;;;;;;;-145.18;100.00;46615.47;4993963;28;20042;-64
2023/10/03 09:09:42;;;;;;;4.13;0.77;;;;;;;-145.18;100.00;46615.47;4992428;28;20026;-64
2023/10/03 09:12:08;;;;;;;3.17;0.70;;;;;;;-145.18;100.00;46617.41;4993934;28;20454;-64
2023/10/03 09:14:36;;;;;;;3.03;0.60;;;;;;;-145.18;100.00;46611.56;4994013;28;20022;-65
2023/10/03 09:17:03;;;;;;;2.03;0.60;;;;;;;-145.18;100.00;46611.56;4993723;28;20038;-64
2023/10/03 09:19:44;;;;;;;2.63;0.70;;;;;;;-145.18;100.00;46613.50;4983134;28;20035;-64
2023/10/03 09:22:10;;;;;;;4.43;0.60;;;;;;;-145.18;100.00;46615.47;4993509;28;20137;-65
2023/10/03 09:24:43;;;;;;;2.67;0.57;;;;;;;-145.18;100.00;46617.41;4993570;28;20030;-65
2023/10/03 09:27:17;;;;;;;2.80;0.60;;;;;;;-145.18;100.00;46617.41;4993659;28;20041;-64
2023/10/03 09:29:45;;;;;;;2.37;0.73;;;;;;;-145.18;100.00;46617.41;4993331;28;20069;-64
2023/10/03 09:32:15;;;;;;;2.43;0.60;;;;;;;-145.18;100.00;46615.47;4993674;28;20130;-64
2023/10/03 09:34:46;;;;;;;7.13;1.13;;;;;;;-145.18;100.00;46619.38;4992673;28;20096;-64
2023/10/03 09:37:12;;;;;;;2.30;0.50;;;;;;;-145.18;100.00;46623.28;4993253;28;20030;-64
2023/10/03 09:39:48;;;;;;;2.30;0.60;;;;;;;-145.18;100.00;46619.38;4992261;28;20355;-64
2023/10/03 09:42:16;;;;;;;;;;;;;;;-145.18;100.00;46623.28;4994111;28;20080;-64
2023/10/03 09:44:48;;;;;;;1.30;0.87;;;;;;;-145.18;100.00;46623.28;4993005;28;20378;-64
2023/10/03 09:47:17;;;;;;;3.33;0.70;;;;;;;-145.18;100.00;46627.19;4993577;28;20117;-64
2023/10/03 09:49:43;;;;;;;0.87;0.40;;;;;;;-145.18;100.00;46625.22;4993192;28;20038;-64
2023/10/03 09:52:17;;;;;;;3.43;0.60;;;;;;;-145.18;100.00;46621.31;4992532;28;20034;-64
2023/10/03 09:54:43;;;;;;;1.10;0.50;;;;;;;-145.18;100.00;46613.50;4990487;28;20057;-64
2023/10/03 09:57:16;;;;;;;4.20;0.60;;;;;;;-145.18;100.00;46615.47;4992841;28;20034;-64
2023/10/03 09:59:45;;;;;;;1.83;0.53;;;;;;;-145.18;100.00;46609.59;4991472;28;20102;-64
2023/10/03 10:02:12;;;;;;;6.27;0.83;;;;;;;-145.18;100.00;46611.56;4992996;28;20039;-60
2023/10/03 10:04:40;;;;;;;1.37;0.37;;;;;;;-145.18;100.00;46611.56;4981412;28;20030;-60
2023/10/03 10:07:16;;;;;;;1.03;0.40;;;;;;;-145.18;100.00;46609.59;4992526;28;20030;-60
2023/10/03 10:10:07;;;;;;;1.37;0.40;;;;;;;-145.18;100.00;46601.78;4991504;28;20437;-60
2023/10/03 10:12:37;;;;;;;3.57;0.63;;;;;;;-145.18;100.00;46601.78;4982077;28;20029;-60
2023/10/03 10:17:45;;;;;;;2.77;0.53;;;;;;;-145.18;100.00;46597.88;4992145;28;20034;-60
2023/10/03 10:20:18;;;;;;;1.47;0.50;;;;;;;-145.18;100.00;46592.03;4992562;28;20506;-60
2023/10/03 10:22:59;;;;;;;2.37;0.50;;;;;;;-145.18;100.00;46593.97;4991243;28;20072;-60
2023/10/03 10:25:37;;;;;;;2.97;0.87;;;;;;;-145.18;100.00;46588.13;4991468;28;20054;-60
2023/10/03 10:28:08;;;;;;;1.90;0.67;;;;;;;-145.18;100.00;46592.03;4992551;28;20027;-60
2023/10/03 10:30:34;;;;;;;2.73;0.53;;;;;;;-145.18;100.00;46590.06;4992093;28;20434;-60
2023/10/03 10:33:18;;;;;;;1.27;0.40;;;;;;;-145.18;100.00;46593.97;4992662;28;20022;-58
2023/10/03 10:35:54;;;;;;;2.17;0.60;;;;;;;-145.18;100.00;46588.13;4992299;28;20026;-60
2023/10/03 10:38:40;;;;;;;3.70;1.20;;;;;;;-145.18;100.00;46588.13;4991984;28;20026;-60
2023/10/03 10:41:27;;;;;;;4.13;0.65;;;;;;;-145.18;100.00;46590.06;4975816;28;20042;-60
2023/10/03 10:44:13;;;;;;;4.20;0.70;;;;;;;-145.18;100.00;46592.03;4977525;28;20031;-60
2023/10/03 10:46:44;;;;;;;2.53;0.55;;;;;;;-145.18;100.00;46593.97;4991992;28;20394;-60
2023/10/03 10:49:33;;;;;;;3.90;1.27;;;;;;;-145.18;100.00;46592.03;4992276;28;20031;-60
2023/10/03 10:52:06;;;;;;;3.50;1.10;;;;;;;-145.18;100.00;46592.03;4984187;28;20037;-61
2023/10/03 10:54:35;;;;;;;5.97;2.17;;;;;;;-145.18;100.00;46588.13;4991711;28;20025;-60
2023/10/03 10:57:03;;;;;;;5.20;0.90;;;;;;;-145.18;100.00;46593.97;4988017;28;20558;-60
2023/10/03 10:59:41;;;;;;;4.27;1.23;;;;;;;-145.18;100.00;46590.06;4991917;28;20569;-60
2023/10/03 11:02:16;;;;;;;3.83;1.27;;;;;;;-145.18;100.00;46590.06;4990988;28;20030;-62
2023/10/03 11:04:41;;;;;;;3.25;1.40;;;;;;;-145.18;100.00;46590.06;4985488;28;20057;-60
2023/10/03 11:07:06;;;;;;;11.03;1.70;;;;;;;-145.18;100.00;46586.16;4990755;28;20038;-60
2023/10/03 11:09:38;;;;;;;6.10;1.40;;;;;;;-145.18;100.00;46586.16;4992336;28;20470;-61
2023/10/03 11:12:06;;;;;;;7.77;1.67;;;;;;;-145.18;100.00;46582.25;4989808;28;20079;-61
2023/10/03 11:14:33;;;;;;;9.13;1.30;;;;;;;-145.18;100.00;46578.34;4992182;28;20081;-61
2023/10/03 11:17:04;;;;;;;6.07;1.80;;;;;;;-145.18;100.00;46584.22;4990817;28;20034;-61
2023/10/03 11:19:31;;;;;;;6.20;1.60;;;;;;;-145.18;100.00;46580.31;4992077;28;20096;-61